createdAt,value
2019-01-09T00:01:09.321Z,37.57
2019-01-09T00:03:38.708Z,33.63
2019-01-09T00:06:08.107Z,32.73
2019-01-09T00:08:37.438Z,32.93
2019-01-09T00:11:06.794Z,33.23
2019-01-09T00:13:36.189Z,31.10
2019-01-09T00:16:05.576Z,28.63
2019-01-09T00:18:35.034Z,30.43
2019-01-09T00:21:04.391Z,31.80
2019-01-09T00:23:33.718Z,29.20
2019-01-09T00:26:03.047Z,31.00
2019-01-09T00:28:32.417Z,29.43
2019-01-09T00:31:01.866Z,34.90
2019-01-09T00:33:31.224Z,35.93
2019-01-09T00:36:00.601Z,27.47
2019-01-09T00:38:29.965Z,31.33
2019-01-09T00:40:59.346Z,28.40
2019-01-09T00:43:28.697Z,28.83
2019-01-09T00:45:58.058Z,27.73
2019-01-09T00:48:27.376Z,26.50
2019-01-09T00:50:56.700Z,29.83
2019-01-09T00:53:26.075Z,27.27
2019-01-09T00:55:55.484Z,32.47
2019-01-09T00:58:25.056Z,31.00
2019-01-09T01:00:54.449Z,27.67
2019-01-09T01:04:06.796Z,28.63
2019-01-09T01:07:25.838Z,31.20
2019-01-09T01:10:33.321Z,29.40
2019-01-09T01:13:54.431Z,23.30
2019-01-09T01:17:00.442Z,28.73
2019-01-09T01:20:18.630Z,28.23
2019-01-09T01:23:13.078Z,30.20
2019-01-09T01:26:23.517Z,28.50
2019-01-09T01:29:29.590Z,26.63
2019-01-09T01:32:38.860Z,27.73
2019-01-09T01:35:54.640Z,27.83
2019-01-09T01:39:04.917Z,28.20
2019-01-09T01:42:11.531Z,26.90
2019-01-09T01:45:36.784Z,27.03
2019-01-09T01:48:42.884Z,28.13
2019-01-09T01:51:52.993Z,23.87
2019-01-09T01:54:55.732Z,29.70
2019-01-09T01:57:50.737Z,27.20
2019-01-09T02:00:57.546Z,25.03
2019-01-09T02:03:56.589Z,25.10
2019-01-09T02:06:55.961Z,25.33
2019-01-09T02:09:50.529Z,25.90
2019-01-09T02:12:51.275Z,26.30
2019-01-09T02:16:11.112Z,28.90
2019-01-09T02:18:54.141Z,24.70
2019-01-09T02:21:57.161Z,25.67
2019-01-09T02:24:58.568Z,28.27
2019-01-09T02:27:47.526Z,24.03
2019-01-09T02:30:53.676Z,24.53
2019-01-09T02:33:23.086Z,27.03
2019-01-09T02:35:52.456Z,26.47
2019-01-09T02:38:26.771Z,25.87
2019-01-09T02:40:56.178Z,25.53
2019-01-09T02:43:26.531Z,23.73
2019-01-09T02:45:55.898Z,24.77
2019-01-09T02:48:27.635Z,24.57
2019-01-09T02:50:57.053Z,29.50
2019-01-09T02:53:26.387Z,27.60
2019-01-09T02:55:55.804Z,24.30
2019-01-09T02:58:25.160Z,26.77
2019-01-09T03:00:54.513Z,25.33
2019-01-09T03:03:23.856Z,25.20
2019-01-09T03:05:53.216Z,24.17
2019-01-09T03:08:22.622Z,27.93
2019-01-09T03:10:51.961Z,25.17
2019-01-09T03:13:21.298Z,25.40
2019-01-09T03:15:50.653Z,25.80
2019-01-09T03:18:19.996Z,25.97
2019-01-09T03:20:49.319Z,25.90
2019-01-09T03:23:18.674Z,27.00
2019-01-09T03:25:48.065Z,27.43
2019-01-09T03:28:17.384Z,21.47
2019-01-09T03:30:47.054Z,27.23
2019-01-09T03:33:16.413Z,25.33
2019-01-09T03:35:45.747Z,24.43
2019-01-09T03:38:15.119Z,22.80
2019-01-09T03:40:44.512Z,28.03
2019-01-09T03:43:13.843Z,24.10
2019-01-09T03:45:43.202Z,26.43
2019-01-09T03:48:12.503Z,24.73
2019-01-09T03:50:41.838Z,30.43
2019-01-09T03:53:11.193Z,23.17
2019-01-09T03:55:40.516Z,21.93
2019-01-09T03:58:09.867Z,23.63
2019-01-09T04:00:39.248Z,23.33
2019-01-09T04:03:11.025Z,25.40
2019-01-09T04:05:40.379Z,25.37
2019-01-09T04:08:10.191Z,22.87
2019-01-09T04:10:39.593Z,26.30
2019-01-09T04:13:08.945Z,23.53
2019-01-09T04:15:38.303Z,20.90
2019-01-09T04:18:07.657Z,21.33
2019-01-09T04:20:36.993Z,20.27
2019-01-09T04:23:06.426Z,26.13
2019-01-09T04:25:37.066Z,23.37
2019-01-09T04:28:06.433Z,24.17
2019-01-09T04:30:35.834Z,23.63
2019-01-09T04:33:05.162Z,23.20
2019-01-09T04:35:34.508Z,25.30
2019-01-09T04:38:03.830Z,24.37
2019-01-09T04:40:33.173Z,23.40
2019-01-09T04:43:02.538Z,24.23
2019-01-09T04:45:31.885Z,23.77
2019-01-09T04:48:01.261Z,23.77
2019-01-09T04:50:30.600Z,24.33
2019-01-09T04:52:59.919Z,27.37
2019-01-09T04:55:29.279Z,24.87
2019-01-09T04:57:58.602Z,25.07
2019-01-09T05:00:27.949Z,25.40
2019-01-09T05:02:57.348Z,23.53
2019-01-09T05:05:26.689Z,23.70
2019-01-09T05:07:56.054Z,24.27
2019-01-09T05:10:25.398Z,24.43
2019-01-09T05:12:55.045Z,23.37
2019-01-09T05:15:24.424Z,23.57
2019-01-09T05:17:53.785Z,24.07
2019-01-09T05:20:23.239Z,23.83
2019-01-09T05:22:52.618Z,25.43
2019-01-09T05:25:21.967Z,23.47
2019-01-09T05:27:51.323Z,22.07
2019-01-09T05:30:20.671Z,23.47
2019-01-09T05:32:50.109Z,24.23
2019-01-09T05:35:19.481Z,22.17
2019-01-09T05:37:48.865Z,24.40
2019-01-09T05:40:18.228Z,20.83
2019-01-09T05:42:47.666Z,23.33
2019-01-09T05:45:17.004Z,20.00
2019-01-09T05:47:46.469Z,23.17
2019-01-09T05:50:15.791Z,22.73
2019-01-09T05:52:45.109Z,23.60
2019-01-09T05:55:14.476Z,23.17
2019-01-09T05:57:43.823Z,21.27
2019-01-09T06:00:13.212Z,23.63
2019-01-09T06:02:42.622Z,23.10
2019-01-09T06:05:11.986Z,22.83
2019-01-09T06:07:41.381Z,24.43
2019-01-09T06:10:10.762Z,27.70
2019-01-09T06:12:40.205Z,24.07
2019-01-09T06:15:09.643Z,26.47
2019-01-09T06:17:39.056Z,29.33
2019-01-09T06:20:09.057Z,26.80
2019-01-09T06:22:38.490Z,28.23
2019-01-09T06:25:08.036Z,29.03
2019-01-09T06:27:37.484Z,24.97
2019-01-09T06:30:07.202Z,28.20
2019-01-09T06:32:36.633Z,29.97
2019-01-09T06:35:06.029Z,36.20
2019-01-09T06:37:35.444Z,29.00
2019-01-09T06:40:05.144Z,27.80
2019-01-09T06:42:34.543Z,26.50
2019-01-09T06:45:03.980Z,26.67
2019-01-09T06:47:33.337Z,25.20
2019-01-09T06:50:02.724Z,23.63
2019-01-09T06:52:33.027Z,26.73
2019-01-09T06:55:02.421Z,26.57
2019-01-09T06:57:31.756Z,25.97
2019-01-09T07:00:01.170Z,23.73
2019-01-09T07:02:30.517Z,21.67
2019-01-09T07:04:59.853Z,23.70
2019-01-09T07:07:36.031Z,19.20
2019-01-09T07:10:00.967Z,26.33
2019-01-09T07:12:30.584Z,25.97
2019-01-09T07:14:59.931Z,23.10
2019-01-09T07:17:29.380Z,20.83
2019-01-09T07:19:58.767Z,21.83
2019-01-09T07:22:28.106Z,23.33
2019-01-09T07:24:57.655Z,24.37
2019-01-09T07:27:26.964Z,22.40
2019-01-09T07:29:56.271Z,22.33
2019-01-09T07:32:25.619Z,15.80
2019-01-09T07:34:55.033Z,23.73
2019-01-09T07:37:24.418Z,23.80
2019-01-09T07:39:53.968Z,22.03
2019-01-09T07:42:23.358Z,22.30
2019-01-09T07:44:52.688Z,44.43
2019-01-09T07:47:22.033Z,39.93
2019-01-09T07:49:51.348Z,28.17
2019-01-09T07:52:20.689Z,22.00
2019-01-09T07:54:50.053Z,16.07
2019-01-09T07:57:19.407Z,26.43
2019-01-09T07:59:48.741Z,49.57
2019-01-09T08:02:18.146Z,57.00
2019-01-09T08:04:47.562Z,60.83
2019-01-09T08:07:16.963Z,62.87
2019-01-09T08:09:46.359Z,66.53
2019-01-09T08:12:15.734Z,67.63
2019-01-09T08:14:45.461Z,70.03
2019-01-09T08:17:14.849Z,70.43
2019-01-09T08:19:44.174Z,66.07
2019-01-09T08:22:13.586Z,57.83
2019-01-09T08:24:42.899Z,56.43
2019-01-09T08:27:12.303Z,42.53
2019-01-09T08:29:41.659Z,43.17
2019-01-09T08:32:11.083Z,41.63
2019-01-09T08:34:40.481Z,45.63
2019-01-09T08:37:09.858Z,41.73
2019-01-09T08:39:39.204Z,42.73
2019-01-09T08:42:08.554Z,42.67
2019-01-09T08:44:37.893Z,39.87
2019-01-09T08:47:07.290Z,43.90
2019-01-09T08:49:36.633Z,42.47
2019-01-09T08:52:05.921Z,39.57
2019-01-09T08:54:35.298Z,38.63
2019-01-09T08:57:04.717Z,38.37
2019-01-09T08:59:34.121Z,38.30
2019-01-09T09:02:03.489Z,44.30
2019-01-09T09:04:38.679Z,45.07
2019-01-09T09:07:08.118Z,40.97
2019-01-09T09:09:37.543Z,46.47
2019-01-09T09:12:06.864Z,37.87
2019-01-09T09:14:36.226Z,44.87
2019-01-09T09:17:05.613Z,38.87
2019-01-09T09:19:35.021Z,36.63
2019-01-09T09:22:04.390Z,38.07
2019-01-09T09:24:33.786Z,42.90
2019-01-09T09:27:03.138Z,48.37
2019-01-09T09:29:32.503Z,39.20
2019-01-09T09:32:01.917Z,36.60
2019-01-09T09:34:31.271Z,37.30
2019-01-09T09:37:00.630Z,33.07
2019-01-09T09:39:30.001Z,32.47
2019-01-09T09:41:59.417Z,32.27
2019-01-09T09:44:28.757Z,33.97
2019-01-09T09:46:58.145Z,29.83
2019-01-09T09:49:27.504Z,36.10
2019-01-09T09:51:56.849Z,30.83
2019-01-09T09:54:26.185Z,36.23
2019-01-09T09:56:55.538Z,29.83
2019-01-09T09:59:24.967Z,28.40
2019-01-09T10:01:54.342Z,30.67
2019-01-09T10:04:23.686Z,26.90
2019-01-09T10:06:53.041Z,27.43
2019-01-09T10:09:22.423Z,33.23
2019-01-09T10:11:51.761Z,32.73
2019-01-09T10:14:21.073Z,31.50
2019-01-09T10:16:50.465Z,35.97
2019-01-09T10:19:19.789Z,31.37
2019-01-09T10:21:49.146Z,32.53
2019-01-09T10:24:18.514Z,33.23
2019-01-09T10:26:47.844Z,33.90
2019-01-09T10:29:17.238Z,33.50
2019-01-09T10:31:46.587Z,35.53
2019-01-09T10:34:15.986Z,31.43
2019-01-09T10:36:45.369Z,29.60
2019-01-09T10:39:14.804Z,30.47
2019-01-09T10:41:44.176Z,33.47
2019-01-09T10:44:18.811Z,33.30
2019-01-09T10:46:44.653Z,31.43
2019-01-09T10:49:14.034Z,34.80
2019-01-09T10:51:43.389Z,33.57
2019-01-09T10:54:12.779Z,29.50
2019-01-09T10:56:42.155Z,35.93
2019-01-09T10:59:11.570Z,31.30
2019-01-09T11:01:40.948Z,36.00
2019-01-09T11:04:10.343Z,32.10
2019-01-09T11:06:39.679Z,34.53
2019-01-09T11:09:09.286Z,31.37
2019-01-09T11:11:38.729Z,29.97
2019-01-09T11:14:09.437Z,28.27
2019-01-09T11:16:38.841Z,30.20
2019-01-09T11:19:08.175Z,34.30
2019-01-09T11:21:37.627Z,34.17
2019-01-09T11:24:07.063Z,30.10
2019-01-09T11:26:36.412Z,29.00
2019-01-09T11:29:06.140Z,31.83
2019-01-09T11:31:37.199Z,23.87
2019-01-09T11:34:06.625Z,27.20
2019-01-09T11:36:36.098Z,26.07
2019-01-09T11:39:09.370Z,24.87
2019-01-09T11:41:39.257Z,24.50
2019-01-09T11:44:08.785Z,26.03
2019-01-09T11:46:38.317Z,29.20
2019-01-09T11:49:07.973Z,24.90
2019-01-09T11:51:37.503Z,27.77
2019-01-09T11:54:07.110Z,26.30
2019-01-09T11:56:36.683Z,32.50
2019-01-09T11:59:06.356Z,26.60
2019-01-09T12:01:35.954Z,25.90
2019-01-09T12:04:05.356Z,27.63
2019-01-09T12:06:34.670Z,22.83
2019-01-09T12:09:05.464Z,25.63
2019-01-09T12:11:34.826Z,24.40
2019-01-09T12:14:04.273Z,27.40
2019-01-09T12:16:33.654Z,26.60
2019-01-09T12:19:03.039Z,26.33
2019-01-09T12:21:32.413Z,29.43
2019-01-09T12:24:01.771Z,26.67
2019-01-09T12:26:31.119Z,26.83
2019-01-09T12:29:00.492Z,25.73
2019-01-09T12:31:29.839Z,24.53
2019-01-09T12:33:59.189Z,29.23
2019-01-09T12:36:28.546Z,28.50
2019-01-09T12:38:57.924Z,34.63
2019-01-09T12:41:27.300Z,28.97
2019-01-09T12:43:56.650Z,29.63
2019-01-09T12:46:25.998Z,28.20
2019-01-09T12:48:55.380Z,28.17
2019-01-09T12:51:24.761Z,31.80
2019-01-09T12:53:54.151Z,30.83
2019-01-09T12:56:23.506Z,28.37
2019-01-09T12:58:52.897Z,35.37
2019-01-09T13:01:22.285Z,32.20
2019-01-09T13:03:51.672Z,28.33
2019-01-09T13:06:21.035Z,26.50
2019-01-09T13:08:50.464Z,25.43
2019-01-09T13:11:19.840Z,24.73
2019-01-09T13:13:49.170Z,20.83
2019-01-09T13:16:18.528Z,23.80
2019-01-09T13:18:48.000Z,26.13
2019-01-09T13:21:17.364Z,20.80
2019-01-09T13:23:46.758Z,20.73
2019-01-09T13:26:16.408Z,19.90
2019-01-09T13:28:45.753Z,19.33
2019-01-09T13:31:15.172Z,21.93
2019-01-09T13:33:44.533Z,21.97
2019-01-09T13:36:13.999Z,24.77
2019-01-09T13:38:43.371Z,15.03
2019-01-09T13:41:12.756Z,15.13
2019-01-09T13:43:42.097Z,14.47
2019-01-09T13:46:11.444Z,18.20
2019-01-09T13:48:40.805Z,15.80
2019-01-09T13:51:10.168Z,17.97
2019-01-09T13:53:39.554Z,16.97
2019-01-09T13:56:08.906Z,16.33
2019-01-09T13:58:38.293Z,17.40
2019-01-09T14:01:07.621Z,19.40
2019-01-09T14:03:37.005Z,21.00
2019-01-09T14:06:06.357Z,23.47
2019-01-09T14:08:35.710Z,21.33
2019-01-09T14:11:05.174Z,22.10
2019-01-09T14:13:34.563Z,21.40
2019-01-09T14:16:03.882Z,20.30
2019-01-09T14:18:33.240Z,19.73
2019-01-09T14:21:02.712Z,23.10
2019-01-09T14:23:34.462Z,22.67
2019-01-09T14:26:05.458Z,22.70
2019-01-09T14:28:34.819Z,18.70
2019-01-09T14:31:07.217Z,16.60
2019-01-09T14:33:36.743Z,15.57
2019-01-09T14:36:06.246Z,15.57
2019-01-09T14:38:35.579Z,13.20
2019-01-09T14:41:05.245Z,15.97
2019-01-09T14:43:34.632Z,14.63
2019-01-09T14:46:04.055Z,14.93
2019-01-09T14:48:33.453Z,13.60
2019-01-09T14:51:19.625Z,12.97
2019-01-09T14:53:48.951Z,13.00
2019-01-09T14:56:18.245Z,14.27
2019-01-09T14:58:47.568Z,14.13
2019-01-09T15:01:17.017Z,16.83
2019-01-09T15:03:46.513Z,16.93
2019-01-09T15:06:16.243Z,10.77
2019-01-09T15:08:45.644Z,13.87
2019-01-09T15:11:14.994Z,12.50
2019-01-09T15:13:44.759Z,12.47
2019-01-09T15:16:14.118Z,13.43
2019-01-09T15:18:43.425Z,14.30
2019-01-09T15:21:12.800Z,14.13
2019-01-09T15:23:42.221Z,13.30
2019-01-09T15:26:11.659Z,13.97
2019-01-09T15:28:41.035Z,13.30
2019-01-09T15:31:10.386Z,14.23
2019-01-09T15:33:39.746Z,15.30
2019-01-09T15:36:09.115Z,13.37
2019-01-09T15:38:40.792Z,12.00
2019-01-09T15:41:10.134Z,11.27
2019-01-09T15:43:39.555Z,15.33
2019-01-09T15:46:09.000Z,10.77
2019-01-09T15:48:38.342Z,12.97
2019-01-09T15:53:26.707Z,11.10
2019-01-09T15:55:56.047Z,13.50
2019-01-09T15:58:25.698Z,14.23
2019-01-09T16:00:57.925Z,10.83
2019-01-09T16:03:27.382Z,12.37
2019-01-09T16:05:56.805Z,12.23
2019-01-09T16:08:26.131Z,11.50
2019-01-09T16:10:55.462Z,11.33
2019-01-09T16:13:24.833Z,11.30
2019-01-09T16:15:54.200Z,15.63
2019-01-09T16:18:23.576Z,11.53
2019-01-09T16:20:53.023Z,14.37
2019-01-09T16:23:24.119Z,20.00
2019-01-09T16:25:56.387Z,13.30
2019-01-09T16:28:25.808Z,15.87
2019-01-09T16:31:14.549Z,13.97
2019-01-09T16:33:43.903Z,14.33
2019-01-09T16:36:13.368Z,14.60
2019-01-09T16:38:42.980Z,14.70
2019-01-09T16:41:12.696Z,15.60
2019-01-09T16:43:42.054Z,14.33
2019-01-09T16:46:12.650Z,14.57
2019-01-09T16:48:42.014Z,17.47
2019-01-09T16:51:11.347Z,15.97
2019-01-09T16:53:40.756Z,15.47
2019-01-09T16:56:11.756Z,17.47
2019-01-09T16:58:41.294Z,15.20
2019-01-09T17:01:25.215Z,14.83
2019-01-09T17:03:54.565Z,12.60
2019-01-09T17:06:24.021Z,14.33
2019-01-09T17:08:53.417Z,15.10
2019-01-09T17:11:22.808Z,17.37
2019-01-09T17:13:52.294Z,16.90
2019-01-09T17:16:22.772Z,14.13
2019-01-09T17:18:52.711Z,14.83
2019-01-09T17:21:22.403Z,13.07
2019-01-09T17:23:51.842Z,14.67
2019-01-09T17:26:21.762Z,13.20
2019-01-09T17:28:51.172Z,13.93
2019-01-09T17:31:20.959Z,15.07
2019-01-09T17:33:51.068Z,12.70
2019-01-09T17:36:20.514Z,12.80
2019-01-09T17:38:49.877Z,14.63
2019-01-09T17:41:19.262Z,14.80
2019-01-09T17:43:48.734Z,13.83
2019-01-09T17:46:18.081Z,12.10
2019-01-09T17:48:47.519Z,12.23
2019-01-09T17:51:16.941Z,12.80
2019-01-09T17:53:46.295Z,10.43
2019-01-09T17:56:15.649Z,12.23
2019-01-09T17:58:44.965Z,10.83
2019-01-09T18:01:14.336Z,11.53
2019-01-09T18:03:43.751Z,10.50
2019-01-09T18:06:13.150Z,12.40
2019-01-09T18:08:44.032Z,12.37
2019-01-09T18:11:13.488Z,13.53
2019-01-09T18:13:42.821Z,12.27
2019-01-09T18:16:12.197Z,14.97
2019-01-09T18:19:50.442Z,13.03
2019-01-09T18:22:19.811Z,15.03
2019-01-09T18:24:49.170Z,17.47
2019-01-09T18:27:18.600Z,13.83
2019-01-09T18:29:47.956Z,12.63
2019-01-09T18:32:30.311Z,13.53
2019-01-09T18:35:09.827Z,12.37
2019-01-09T18:37:58.610Z,13.17
2019-01-09T18:40:59.336Z,13.03
2019-01-09T18:44:10.216Z,12.57
2019-01-09T18:47:32.404Z,12.37
2019-01-09T18:50:48.583Z,13.67
2019-01-09T18:53:50.945Z,14.63
2019-01-09T18:56:20.433Z,15.90
2019-01-09T18:58:52.136Z,13.43
2019-01-09T19:01:21.529Z,13.93
2019-01-09T19:03:50.979Z,13.67
2019-01-09T19:06:22.731Z,15.30
2019-01-09T19:08:52.084Z,15.43
2019-01-09T19:11:21.520Z,13.77
2019-01-09T19:13:51.165Z,15.47
2019-01-09T19:16:20.537Z,18.60
2019-01-09T19:18:54.184Z,14.93
2019-01-09T19:21:21.022Z,15.30
2019-01-09T19:23:50.479Z,16.17
2019-01-09T19:26:19.885Z,14.37
2019-01-09T19:28:49.291Z,16.47
2019-01-09T19:31:18.804Z,16.90
2019-01-09T19:33:50.158Z,19.83
2019-01-09T19:36:23.380Z,18.33
2019-01-09T19:39:00.590Z,18.97
2019-01-09T19:41:44.722Z,18.17
2019-01-09T19:44:14.113Z,17.57
2019-01-09T19:46:44.248Z,19.37
2019-01-09T19:49:13.977Z,17.73
2019-01-09T19:51:43.369Z,18.17
2019-01-09T19:54:12.743Z,15.40
2019-01-09T19:56:42.208Z,15.90
2019-01-09T19:59:11.681Z,18.13
2019-01-09T20:01:44.673Z,17.47
2019-01-09T20:04:14.007Z,19.00
2019-01-09T20:06:43.356Z,19.83
2019-01-09T20:09:12.748Z,19.53
2019-01-09T20:11:42.154Z,19.23
2019-01-09T20:14:11.653Z,17.10
2019-01-09T20:16:41.002Z,17.17
2019-01-09T20:19:10.819Z,16.47
2019-01-09T20:21:40.194Z,18.23
2019-01-09T20:24:09.731Z,19.47
2019-01-09T20:26:39.080Z,18.60
2019-01-09T20:29:08.468Z,19.37
2019-01-09T20:31:37.950Z,18.03
2019-01-09T20:36:33.328Z,21.30
2019-01-09T20:39:02.850Z,19.80
2019-01-09T20:41:35.369Z,22.77
2019-01-09T20:44:03.460Z,22.33
2019-01-09T20:46:33.040Z,18.80
2019-01-09T20:49:03.875Z,21.73
2019-01-09T20:51:33.386Z,20.83
2019-01-09T20:54:02.869Z,22.90
2019-01-09T20:56:32.227Z,21.57
2019-01-09T20:59:01.650Z,23.67
2019-01-09T21:01:31.069Z,25.83
2019-01-09T21:04:00.503Z,23.67
2019-01-09T21:06:29.855Z,26.63
2019-01-09T21:09:00.173Z,42.40
2019-01-09T21:11:29.798Z,29.03
2019-01-09T21:13:59.189Z,27.07
2019-01-09T21:16:28.621Z,25.23
2019-01-09T21:18:58.139Z,25.27
2019-01-09T21:21:27.501Z,24.63
2019-01-09T21:23:58.960Z,26.63
2019-01-09T21:26:28.312Z,23.33
2019-01-09T21:28:57.712Z,23.73
2019-01-09T21:31:27.370Z,25.90
2019-01-09T21:33:56.731Z,27.13
2019-01-09T21:36:26.115Z,22.90
2019-01-09T21:38:55.850Z,24.17
2019-01-09T21:41:25.249Z,21.07
2019-01-09T21:43:54.601Z,20.60
2019-01-09T21:46:23.931Z,22.43
2019-01-09T21:48:53.328Z,21.60
2019-01-09T21:51:22.808Z,22.47
2019-01-09T21:53:52.181Z,22.70
2019-01-09T21:56:21.541Z,21.23
2019-01-09T21:58:50.985Z,20.87
2019-01-09T22:01:20.708Z,24.80
2019-01-09T22:03:50.067Z,23.80
2019-01-09T22:06:19.523Z,23.77
2019-01-09T22:08:49.056Z,23.67
2019-01-09T22:11:18.533Z,20.77
2019-01-09T22:13:47.885Z,24.40
2019-01-09T22:16:17.228Z,24.63
2019-01-09T22:18:46.596Z,25.37
2019-01-09T22:21:15.956Z,25.93
2019-01-09T22:23:45.337Z,26.47
2019-01-09T22:26:14.664Z,26.10
2019-01-09T22:28:44.064Z,25.23
2019-01-09T22:31:13.888Z,28.03
2019-01-09T22:33:43.355Z,28.60
2019-01-09T22:36:12.695Z,34.67
2019-01-09T22:38:42.055Z,36.50
2019-01-09T22:41:11.548Z,43.10
2019-01-09T22:43:40.932Z,46.00
2019-01-09T22:46:10.383Z,52.13
2019-01-09T22:48:39.775Z,47.27
2019-01-09T22:51:09.261Z,45.30
2019-01-09T22:53:38.592Z,46.80
2019-01-09T22:56:07.971Z,44.37
2019-01-09T22:58:37.330Z,44.53
2019-01-09T23:01:18.664Z,43.67
2019-01-09T23:03:48.536Z,43.03
2019-01-09T23:06:17.888Z,40.03
2019-01-09T23:08:47.255Z,41.30
2019-01-09T23:11:16.629Z,40.17
2019-01-09T23:13:46.003Z,40.00
2019-01-09T23:16:15.374Z,37.23
2019-01-09T23:18:45.759Z,38.87
2019-01-09T23:21:15.627Z,36.17
2019-01-09T23:23:47.919Z,36.27
2019-01-09T23:26:17.310Z,36.57
2019-01-09T23:28:48.493Z,36.43
2019-01-09T23:31:17.829Z,32.57
2019-01-09T23:33:47.636Z,31.10
2019-01-09T23:36:17.070Z,34.47
2019-01-09T23:38:46.451Z,29.47
2019-01-09T23:41:15.846Z,31.03
2019-01-09T23:43:45.171Z,32.30
2019-01-09T23:46:14.634Z,37.17
2019-01-09T23:48:43.981Z,27.80
2019-01-09T23:51:13.350Z,32.60
2019-01-09T23:53:42.741Z,36.70
2019-01-09T23:56:12.106Z,33.67
2019-01-09T23:58:41.430Z,34.53
